Time;durP1;ratioP1;P1;durP2;ratioP2;P2;SDS_P1;SDS_P2;PMS_P1;PMS_P2;Temp;Humidity;BMP_temperature;BMP_pressure;BME280_temperature;BME280_humidity;BME280_pressure;Samples;Min_cycle;Max_cycle;Signal;HPM_P1;HPM_P2
2022/07/07 00:00:29;;;;;;;3.80;2.75;;;19.40;99.90;;;;;;5073471;28;20028;-76
2022/07/07 00:02:55;;;;;;;4.93;3.17;;;19.40;99.90;;;;;;5073595;28;20017;-76
2022/07/07 00:05:21;;;;;;;6.63;3.45;;;19.20;99.90;;;;;;5073225;28;20020;-76
2022/07/07 00:07:46;;;;;;;7.53;3.88;;;19.20;99.90;;;;;;5073062;28;20449;-76
2022/07/07 00:10:13;;;;;;;8.02;3.40;;;19.10;99.90;;;;;;5063635;28;20068;-76
2022/07/07 00:12:39;;;;;;;4.25;3.35;;;19.10;99.90;;;;;;5073125;28;20039;-76
2022/07/07 00:15:06;;;;;;;6.70;3.45;;;19.10;99.90;;;;;;5073555;28;20028;-76
2022/07/07 00:17:32;;;;;;;9.18;3.95;;;19.10;99.90;;;;;;5073161;28;20028;-76
2022/07/07 00:19:57;;;;;;;4.32;3.42;;;19.20;99.90;;;;;;5073064;28;20012;-76
2022/07/07 00:22:23;;;;;;;3.60;3.05;;;19.10;99.90;;;;;;5073170;28;20396;-76
2022/07/07 00:24:49;;;;;;;4.65;3.30;;;19.10;99.90;;;;;;5057578;28;20044;-76
2022/07/07 00:27:15;;;;;;;13.25;3.95;;;19.20;99.90;;;;;;5064721;28;20043;-76
2022/07/07 00:29:43;;;;;;;6.20;3.17;;;19.40;99.90;;;;;;5052914;28;20028;-77
2022/07/07 00:32:10;;;;;;;7.53;3.60;;;19.50;99.90;;;;;;5055223;28;20029;-76
2022/07/07 00:34:36;;;;;;;17.33;3.92;;;19.40;99.90;;;;;;5064752;28;20142;-76
2022/07/07 00:37:03;;;;;;;9.02;4.65;;;19.20;99.90;;;;;;5060689;28;20059;-76
2022/07/07 00:39:28;;;;;;;9.00;3.85;;;19.10;99.90;;;;;;5069887;28;20029;-76
2022/07/07 00:41:54;;;;;;;9.85;3.72;;;19.00;99.90;;;;;;5071642;28;20048;-76
2022/07/07 00:44:22;;;;;;;4.57;3.63;;;19.00;99.90;;;;;;5069684;28;20024;-76
2022/07/07 00:46:51;;;;;;;7.25;3.83;;;19.00;99.90;;;;;;5055206;28;20189;-76
2022/07/07 00:49:19;;;;;;;11.35;3.85;;;19.20;99.90;;;;;;5067350;28;20475;-76
2022/07/07 00:51:45;;;;;;;8.48;3.72;;;19.20;99.90;;;;;;5072840;28;20029;-76
2022/07/07 00:54:11;;;;;;;7.95;4.22;;;19.00;99.90;;;;;;5072697;28;20039;-76
2022/07/07 00:56:38;;;;;;;6.80;3.90;;;19.20;99.90;;;;;;5072652;28;20368;-76
2022/07/07 00:59:07;;;;;;;7.47;4.07;;;19.00;99.90;;;;;;5072875;28;20433;-76
2022/07/07 01:01:42;;;;;;;11.90;5.03;;;18.90;99.90;;;;;;5069254;28;20525;-76
2022/07/07 01:04:10;;;;;;;8.35;4.72;;;19.00;99.90;;;;;;5062519;28;20504;-76
2022/07/07 01:06:36;;;;;;;7.03;4.15;;;19.00;99.90;;;;;;5072521;28;20029;-76
2022/07/07 01:09:03;;;;;;;9.20;4.72;;;19.20;99.90;;;;;;5069630;28;20054;-77
2022/07/07 01:11:47;;;;;;;5.75;3.92;;;19.50;99.90;;;;;;5072458;28;20472;-76
2022/07/07 01:14:13;;;;;;;10.10;4.60;;;19.10;99.90;;;;;;5072642;28;20400;-76
2022/07/07 01:16:39;;;;;;;13.18;5.45;;;18.90;99.90;;;;;;5072446;28;20086;-76
2022/07/07 01:19:05;;;;;;;9.55;4.75;;;18.80;99.90;;;;;;5072588;28;20043;-77
2022/07/07 01:21:35;;;;;;;8.23;4.75;;;18.80;99.90;;;;;;5072426;28;20021;-76
2022/07/07 01:24:00;;;;;;;11.07;4.47;;;18.60;99.90;;;;;;5072559;28;20475;-76
2022/07/07 01:26:26;;;;;;;10.15;4.80;;;18.70;99.90;;;;;;5072455;28;20028;-76
2022/07/07 01:28:52;;;;;;;8.52;4.68;;;18.70;99.90;;;;;;5072156;28;20162;-77
2022/07/07 01:31:18;;;;;;;10.20;4.88;;;18.80;99.90;;;;;;5070992;28;20047;-76
2022/07/07 01:33:44;;;;;;;8.77;4.97;;;18.90;99.90;;;;;;5070809;28;20039;-76
2022/07/07 01:36:13;;;;;;;15.10;5.65;;;18.90;99.90;;;;;;5065571;28;20127;-76
2022/07/07 01:38:38;;;;;;;10.75;4.72;;;18.90;99.90;;;;;;5065800;28;20028;-77
2022/07/07 01:41:04;;;;;;;11.10;5.20;;;19.00;99.90;;;;;;5072305;28;20375;-76
2022/07/07 01:43:30;;;;;;;10.07;4.80;;;18.80;99.90;;;;;;5072256;28;20028;-77
2022/07/07 01:45:56;;;;;;;10.60;4.75;;;18.90;99.90;;;;;;5058076;28;20012;-76
2022/07/07 01:48:23;;;;;;;9.43;5.13;;;19.00;99.90;;;;;;5062371;28;20400;-77
2022/07/07 01:50:49;;;;;;;12.48;4.57;;;19.00;99.90;;;;;;5072215;28;20032;-76
2022/07/07 01:53:15;;;;;;;9.75;4.85;;;19.00;99.90;;;;;;5054218;28;20031;-77
2022/07/07 01:55:41;;;;;;;9.68;4.28;;;19.20;99.90;;;;;;5072236;28;20103;-77
2022/07/07 01:58:07;;;;;;;8.95;4.28;;;19.20;99.90;;;;;;5072111;28;20040;-77
2022/07/07 02:00:32;;;;;;;10.13;4.28;;;19.30;99.90;;;;;;5053601;28;20016;-76
2022/07/07 02:02:58;;;;;;;9.23;4.10;;;19.20;99.90;;;;;;5070866;28;20036;-77
2022/07/07 02:05:24;;;;;;;9.48;3.80;;;19.20;99.90;;;;;;5071918;28;20029;-75
2022/07/07 02:07:50;;;;;;;10.70;4.35;;;19.20;99.90;;;;;;5070501;28;20074;-74
2022/07/07 02:11:12;;;;;;;10.63;4.05;;;19.20;99.90;;;;;;5047381;28;20044;-76
2022/07/07 02:13:01;;;;;;;9.52;4.18;;;19.20;99.90;;;;;;5071883;28;20044;-77
2022/07/07 02:15:27;;;;;;;8.25;4.25;;;19.30;99.90;;;;;;5071579;28;20032;-76
2022/07/07 02:17:53;;;;;;;12.02;4.45;;;19.50;99.90;;;;;;5074403;28;20023;-76
2022/07/07 02:20:18;;;;;;;9.02;4.15;;;19.30;99.90;;;;;;5075509;28;20479;-76
2022/07/07 02:22:44;;;;;;;8.68;3.47;;;19.00;99.90;;;;;;5075546;28;20021;-77
2022/07/07 02:25:10;;;;;;;14.45;4.45;;;18.90;99.90;;;;;;5075331;28;20021;-76
2022/07/07 02:27:35;;;;;;;12.85;4.20;;;19.00;99.90;;;;;;5075634;28;20025;-77
2022/07/07 02:30:01;;;;;;;11.73;3.97;;;19.30;99.90;;;;;;5056839;28;20126;-76
2022/07/07 02:32:27;;;;;;;11.68;4.07;;;19.30;99.90;;;;;;5075523;28;20029;-76
2022/07/07 02:34:52;;;;;;;7.65;3.58;;;19.30;99.90;;;;;;5057034;28;20032;-76
2022/07/07 02:37:18;;;;;;;11.55;3.60;;;19.40;99.90;;;;;;5060038;28;20028;-76
2022/07/07 02:39:44;;;;;;;7.70;4.03;;;19.30;99.90;;;;;;5075059;28;20483;-76
2022/07/07 02:42:09;;;;;;;6.35;3.47;;;19.30;99.90;;;;;;5075048;28;20055;-76
2022/07/07 02:44:35;;;;;;;9.00;3.35;;;19.20;99.90;;;;;;5074584;28;20025;-76
2022/07/07 02:47:01;;;;;;;5.90;2.95;;;19.20;99.90;;;;;;5067572;28;20021;-76
2022/07/07 02:49:26;;;;;;;5.70;2.67;;;19.30;99.90;;;;;;5073165;28;20086;-76
2022/07/07 02:51:53;;;;;;;7.90;2.78;;;19.10;99.90;;;;;;5075129;28;20111;-76
2022/07/07 02:54:18;;;;;;;7.60;2.65;;;19.00;99.90;;;;;;5074883;28;20021;-76
2022/07/07 02:56:44;;;;;;;10.23;2.80;;;19.00;99.90;;;;;;5074745;28;20071;-77
2022/07/07 02:59:10;;;;;;;4.13;2.38;;;19.00;99.90;;;;;;5074432;28;20021;-76
2022/07/07 03:01:36;;;;;;;5.75;2.00;;;18.90;99.90;;;;;;5074671;28;20372;-76
2022/07/07 03:04:01;;;;;;;4.32;2.00;;;19.00;99.90;;;;;;5074778;28;20115;-76
2022/07/07 03:06:27;;;;;;;7.80;1.90;;;18.90;99.90;;;;;;5074467;28;20052;-76
2022/07/07 03:08:53;;;;;;;5.43;2.00;;;19.00;99.90;;;;;;5065557;28;20037;-76
2022/07/07 03:11:19;;;;;;;4.18;1.25;;;19.00;99.90;;;;;;5069723;28;20025;-76
2022/07/07 03:13:45;;;;;;;3.63;1.17;;;18.80;99.90;;;;;;5074173;28;20487;-76
2022/07/07 03:16:11;;;;;;;2.55;1.35;;;18.90;99.90;;;;;;5073402;28;20115;-76
2022/07/07 03:18:36;;;;;;;2.70;1.00;;;18.90;99.90;;;;;;5074518;28;20493;-76
2022/07/07 03:21:02;;;;;;;1.13;0.90;;;18.90;99.90;;;;;;5073134;28;20032;-76
2022/07/07 03:23:28;;;;;;;9.40;1.33;;;18.70;99.90;;;;;;5074454;28;20056;-76
2022/07/07 03:25:54;;;;;;;2.10;1.20;;;18.60;99.90;;;;;;5072953;28;20070;-76
2022/07/07 03:28:20;;;;;;;4.25;1.45;;;18.50;99.90;;;;;;5073916;28;20047;-76
2022/07/07 03:30:46;;;;;;;2.35;1.17;;;18.60;99.90;;;;;;5074157;28;20554;-76
2022/07/07 03:33:12;;;;;;;1.80;0.95;;;18.50;99.90;;;;;;5073148;28;20012;-76
2022/07/07 03:35:38;;;;;;;4.25;1.50;;;18.50;99.90;;;;;;5071129;28;20056;-76
2022/07/07 03:38:05;;;;;;;7.22;1.25;;;18.50;99.90;;;;;;5062769;28;20075;-76
2022/07/07 03:40:31;;;;;;;5.68;1.45;;;18.50;99.90;;;;;;5073846;28;20115;-76
2022/07/07 03:42:57;;;;;;;2.30;1.35;;;18.50;99.90;;;;;;5072626;28;20104;-76
2022/07/07 03:45:22;;;;;;;3.20;1.20;;;18.40;99.90;;;;;;5074138;28;20483;-76
2022/07/07 03:47:50;;;;;;;2.80;1.15;;;18.40;99.90;;;;;;5064386;28;20111;-76
2022/07/07 03:50:15;;;;;;;3.88;1.30;;;18.30;99.90;;;;;;5074051;28;20032;-76
2022/07/07 03:52:41;;;;;;;3.80;1.42;;;18.30;99.90;;;;;;5072311;28;20047;-77
2022/07/07 03:55:08;;;;;;;6.88;1.45;;;18.10;99.90;;;;;;5073687;28;20108;-76
2022/07/07 03:57:34;;;;;;;3.97;1.40;;;18.10;99.90;;;;;;5072924;28;20110;-76
2022/07/07 04:00:00;;;;;;;3.50;1.05;;;18.10;99.90;;;;;;5073124;28;20528;-76
2022/07/07 04:02:26;;;;;;;7.50;1.33;;;18.10;99.90;;;;;;5073165;28;20025;-76
2022/07/07 04:04:52;;;;;;;5.13;1.58;;;18.10;99.90;;;;;;5072162;28;20020;-76
2022/07/07 04:07:18;;;;;;;7.97;1.48;;;18.20;99.90;;;;;;5073555;28;20035;-76
2022/07/07 04:09:43;;;;;;;9.32;1.20;;;18.30;99.90;;;;;;5060525;28;20041;-76
2022/07/07 04:12:09;;;;;;;6.75;1.52;;;18.40;99.90;;;;;;5063673;28;20101;-76
2022/07/07 04:14:35;;;;;;;5.90;1.83;;;18.40;99.90;;;;;;5068702;28;20033;-76
2022/07/07 04:17:01;;;;;;;6.25;1.30;;;18.40;99.90;;;;;;5073153;28;20017;-76
2022/07/07 04:19:26;;;;;;;5.20;1.00;;;18.40;99.90;;;;;;5073582;28;20032;-76
2022/07/07 04:21:52;;;;;;;2.47;1.23;;;18.40;99.90;;;;;;5072902;28;20032;-76
2022/07/07 04:24:18;;;;;;;1.20;1.10;;;18.40;99.90;;;;;;5073390;28;20024;-76
2022/07/07 04:26:43;;;;;;;3.42;1.33;;;18.40;99.90;;;;;;5072466;28;20063;-76
2022/07/07 04:29:09;;;;;;;3.35;1.15;;;18.40;99.90;;;;;;5073230;28;20087;-76
2022/07/07 04:31:35;;;;;;;4.45;1.45;;;18.40;99.90;;;;;;5071699;28;20024;-77
2022/07/07 04:34:04;;;;;;;4.13;1.40;;;18.40;99.90;;;;;;5059174;28;20031;-77
2022/07/07 04:36:29;;;;;;;3.60;0.98;;;18.50;99.90;;;;;;5061679;28;20063;-76
2022/07/07 04:38:56;;;;;;;3.22;1.30;;;18.50;99.90;;;;;;5068315;28;20060;-76
2022/07/07 04:41:22;;;;;;;7.78;1.35;;;18.40;99.90;;;;;;5072825;28;20036;-76
2022/07/07 04:43:47;;;;;;;3.70;1.20;;;18.40;99.90;;;;;;5072877;28;20025;-76
2022/07/07 04:46:13;;;;;;;5.10;1.77;;;18.40;99.90;;;;;;5071830;28;20055;-76
2022/07/07 04:48:39;;;;;;;5.63;1.33;;;18.40;99.90;;;;;;5064428;28;20131;-75
2022/07/07 04:51:05;;;;;;;9.68;1.90;;;18.00;99.90;;;;;;5071549;28;20020;-77
2022/07/07 04:53:30;;;;;;;10.88;1.67;;;17.70;99.90;;;;;;5072677;28;20033;-77
2022/07/07 04:55:56;;;;;;;6.75;2.13;;;17.60;99.90;;;;;;5072429;28;20115;-76
2022/07/07 04:58:23;;;;;;;7.18;1.77;;;17.40;99.90;;;;;;5072809;28;20040;-76
2022/07/07 05:00:49;;;;;;;5.18;1.65;;;17.20;99.90;;;;;;5072664;28;20031;-76
2022/07/07 05:03:14;;;;;;;8.30;1.30;;;17.30;99.90;;;;;;5072802;28;20017;-76
2022/07/07 05:05:40;;;;;;;6.25;1.13;;;17.20;99.90;;;;;;5072699;28;20024;-75
2022/07/07 05:08:06;;;;;;;4.22;0.98;;;17.00;99.90;;;;;;5066925;28;20401;-75
2022/07/07 05:10:31;;;;;;;5.93;0.73;;;16.90;99.90;;;;;;5062236;28;20050;-75
2022/07/07 05:12:57;;;;;;;4.15;1.20;;;17.00;99.90;;;;;;5071207;28;20029;-75
2022/07/07 05:15:23;;;;;;;4.47;0.80;;;17.00;99.90;;;;;;5072785;28;20488;-76
2022/07/07 05:17:49;;;;;;;3.22;0.82;;;17.00;99.90;;;;;;5054257;28;20016;-76
2022/07/07 05:20:14;;;;;;;6.45;1.58;;;17.00;99.90;;;;;;5044524;28;20139;-75
2022/07/07 05:22:40;;;;;;;3.05;1.08;;;17.00;99.90;;;;;;5072496;28;20021;-76
2022/07/07 05:25:06;;;;;;;3.40;0.85;;;17.00;99.90;;;;;;5072125;28;20074;-76
2022/07/07 05:27:32;;;;;;;9.38;1.05;;;17.20;99.90;;;;;;5072430;28;20028;-76
2022/07/07 05:29:58;;;;;;;5.10;0.82;;;17.30;99.90;;;;;;5072114;28;20035;-75
2022/07/07 05:32:23;;;;;;;2.33;0.82;;;17.20;99.90;;;;;;5071366;28;20429;-76
2022/07/07 05:34:49;;;;;;;4.68;0.82;;;17.10;99.90;;;;;;5072300;28;20024;-77
2022/07/07 05:37:15;;;;;;;1.95;0.90;;;17.10;99.90;;;;;;5056914;28;20025;-75
2022/07/07 05:39:40;;;;;;;5.35;0.90;;;17.00;99.90;;;;;;5071945;28;20306;-75
2022/07/07 05:42:06;;;;;;;4.28;1.00;;;17.20;99.90;;;;;;5072346;28;20056;-76
2022/07/07 05:44:32;;;;;;;2.92;0.82;;;17.20;99.90;;;;;;5072247;28;20042;-75
2022/07/07 05:46:58;;;;;;;3.13;0.90;;;17.10;99.90;;;;;;5064970;28;20362;-76
2022/07/07 05:49:24;;;;;;;5.90;1.00;;;17.20;99.90;;;;;;5070287;28;20036;-75
2022/07/07 05:51:49;;;;;;;4.00;1.00;;;17.20;99.90;;;;;;5074666;28;20020;-76
2022/07/07 05:54:15;;;;;;;7.20;1.35;;;17.30;99.90;;;;;;5075490;28;20441;-76
2022/07/07 05:56:41;;;;;;;3.55;1.02;;;17.30;99.90;;;;;;5075969;28;20016;-75
2022/07/07 05:59:07;;;;;;;3.90;1.00;;;17.30;99.90;;;;;;5074473;28;20029;-75
2022/07/07 06:01:32;;;;;;;3.40;1.05;;;17.20;99.90;;;;;;5075912;28;20038;-75
2022/07/07 06:03:58;;;;;;;6.82;1.38;;;17.40;99.90;;;;;;5075849;28;20064;-76
2022/07/07 06:06:24;;;;;;;4.93;1.00;;;17.30;99.90;;;;;;5057761;28;20536;-76
2022/07/07 06:08:49;;;;;;;4.97;1.00;;;17.40;99.90;;;;;;5065607;28;20049;-76
2022/07/07 06:11:15;;;;;;;5.63;1.30;;;17.70;99.90;;;;;;5070631;28;20357;-76
2022/07/07 06:13:41;;;;;;;8.40;1.35;;;17.70;99.90;;;;;;5075690;28;20464;-76
2022/07/07 06:16:07;;;;;;;8.30;1.52;;;17.80;99.90;;;;;;5075704;28;20389;-79
2022/07/07 06:18:33;;;;;;;8.07;1.55;;;18.00;99.90;;;;;;5047728;28;20027;-76
2022/07/07 06:20:59;;;;;;;12.00;1.70;;;18.00;99.90;;;;;;5057269;28;20120;-76
2022/07/07 06:23:25;;;;;;;10.70;1.92;;;17.90;99.90;;;;;;5074047;28;20028;-76
2022/07/07 06:25:51;;;;;;;10.02;1.80;;;17.90;99.90;;;;;;5065129;28;20021;-76
2022/07/07 06:28:16;;;;;;;16.48;2.22;;;18.00;99.90;;;;;;5071480;28;20494;-76
2022/07/07 06:30:42;;;;;;;8.32;2.05;;;18.00;99.90;;;;;;5075273;28;20051;-75
2022/07/07 06:33:08;;;;;;;11.02;1.90;;;17.80;99.90;;;;;;5075246;28;20476;-76
2022/07/07 06:35:33;;;;;;;10.57;1.95;;;17.80;99.90;;;;;;5072727;28;20460;-75
2022/07/07 06:37:59;;;;;;;18.52;2.67;;;17.80;99.90;;;;;;5063406;28;20060;-76
2022/07/07 06:40:25;;;;;;;9.40;2.00;;;17.80;99.90;;;;;;5075110;28;20508;-76
2022/07/07 06:42:51;;;;;;;18.83;1.88;;;17.80;99.90;;;;;;5074994;28;20111;-75
2022/07/07 06:45:24;;;;;;;17.38;1.90;;;17.80;99.90;;;;;;5074074;28;20017;-76
2022/07/07 06:47:50;;;;;;;9.32;2.15;;;17.90;99.90;;;;;;5074849;28;20092;-76
2022/07/07 06:50:15;;;;;;;11.48;2.03;;;17.80;99.90;;;;;;5074727;28;20539;-76
2022/07/07 06:52:41;;;;;;;12.50;2.17;;;18.00;99.90;;;;;;5075396;28;20020;-75
2022/07/07 06:55:07;;;;;;;12.40;2.25;;;18.10;99.90;;;;;;5074877;28;20032;-76
2022/07/07 06:57:33;;;;;;;12.18;2.10;;;18.10;99.90;;;;;;5074651;28;20452;-75
2022/07/07 06:59:59;;;;;;;12.40;2.75;;;17.90;99.90;;;;;;5074795;28;20021;-76
2022/07/07 07:02:25;;;;;;;8.15;1.85;;;18.00;99.90;;;;;;5074593;28;20047;-76
2022/07/07 07:04:51;;;;;;;16.38;3.15;;;18.00;99.90;;;;;;5074186;28;20017;-76
2022/07/07 07:07:17;;;;;;;18.05;2.25;;;18.20;99.90;;;;;;5074793;28;20039;-75
2022/07/07 07:09:43;;;;;;;17.52;2.67;;;18.40;99.90;;;;;;5061671;28;20427;-76
2022/07/07 07:12:09;;;;;;;10.18;1.98;;;18.70;99.90;;;;;;5074724;28;20025;-76
2022/07/07 07:14:35;;;;;;;12.13;1.75;;;18.80;99.90;;;;;;5074542;28;20036;-76
2022/07/07 07:17:01;;;;;;;11.10;1.63;;;18.60;99.90;;;;;;5074267;28;20077;-76
2022/07/07 07:19:27;;;;;;;11.57;2.28;;;18.40;99.90;;;;;;5073231;28;20032;-75
2022/07/07 07:21:53;;;;;;;9.85;1.73;;;18.20;99.90;;;;;;5074110;28;20017;-75
2022/07/07 07:24:19;;;;;;;8.60;1.85;;;18.20;99.90;;;;;;5074418;28;20032;-75
2022/07/07 07:26:44;;;;;;;11.65;2.00;;;18.10;99.90;;;;;;5073016;28;20009;-75
2022/07/07 07:29:10;;;;;;;14.77;1.88;;;18.30;99.90;;;;;;5074200;28;20063;-76
2022/07/07 07:31:35;;;;;;;8.85;1.67;;;18.50;99.90;;;;;;5074027;28;20367;-75
2022/07/07 07:34:01;;;;;;;9.57;2.10;;;18.60;99.90;;;;;;5073896;28;20028;-75
2022/07/07 07:36:27;;;;;;;15.25;1.73;;;18.50;99.90;;;;;;5064422;28;20047;-76
2022/07/07 07:38:53;;;;;;;12.98;1.70;;;18.70;99.90;;;;;;5069736;28;20044;-76
2022/07/07 07:41:19;;;;;;;7.80;2.03;;;18.90;99.90;;;;;;5072788;28;20031;-75
2022/07/07 07:43:45;;;;;;;6.43;1.65;;;19.20;99.90;;;;;;5074125;28;20446;-76
2022/07/07 07:46:11;;;;;;;13.00;1.70;;;19.20;99.90;;;;;;5073158;28;20108;-76
2022/07/07 07:48:37;;;;;;;12.70;2.20;;;19.20;99.90;;;;;;5065220;28;20075;-76
2022/07/07 07:51:03;;;;;;;12.95;2.80;;;19.00;99.90;;;;;;5072149;28;20024;-76
2022/07/07 07:53:28;;;;;;;8.48;1.92;;;18.90;99.90;;;;;;5073892;28;20447;-75
2022/07/07 07:55:54;;;;;;;17.13;2.63;;;19.00;99.90;;;;;;5073665;28;20507;-75
2022/07/07 07:58:20;;;;;;;7.68;1.92;;;18.70;99.90;;;;;;5072451;28;20086;-76
2022/07/07 08:00:46;;;;;;;9.65;2.20;;;18.70;99.90;;;;;;5073635;28;20040;-75
2022/07/07 08:03:12;;;;;;;5.90;1.27;;;18.70;99.90;;;;;;5072992;28;20023;-75
2022/07/07 08:05:37;;;;;;;9.82;1.45;;;18.90;99.90;;;;;;5072360;28;20067;-76
2022/07/07 08:08:03;;;;;;;5.85;1.48;;;19.10;99.90;;;;;;5071143;28;20480;-76
2022/07/07 08:10:29;;;;;;;4.05;1.25;;;18.70;99.90;;;;;;5063051;28;20102;-75
2022/07/07 08:12:55;;;;;;;5.82;0.75;;;18.30;99.90;;;;;;5072991;28;20487;-76
2022/07/07 08:15:20;;;;;;;2.50;0.68;;;17.90;99.90;;;;;;5072938;28;20388;-75
2022/07/07 08:17:48;;;;;;;2.45;0.52;;;17.70;99.90;;;;;;5073061;28;20024;-75
2022/07/07 08:20:15;;;;;;;4.75;0.88;;;17.60;99.90;;;;;;5071922;28;20078;-75
2022/07/07 08:22:41;;;;;;;2.83;0.98;;;17.90;99.90;;;;;;5073075;28;20033;-75
2022/07/07 08:25:07;;;;;;;4.18;1.50;;;18.00;99.90;;;;;;5072925;28;20494;-76
2022/07/07 08:27:33;;;;;;;2.95;0.95;;;18.40;99.90;;;;;;5071896;28;20016;-76
2022/07/07 08:30:00;;;;;;;3.95;1.08;;;18.60;99.90;;;;;;5073054;28;20469;-75
2022/07/07 08:32:26;;;;;;;8.57;1.33;;;18.40;99.90;;;;;;5072838;28;20052;-75
2022/07/07 08:34:51;;;;;;;9.13;2.20;;;18.00;99.90;;;;;;5072829;28;20495;-75
2022/07/07 08:37:17;;;;;;;10.60;2.38;;;18.20;99.90;;;;;;5058748;28;20021;-75
2022/07/07 08:39:43;;;;;;;5.55;1.35;;;18.40;99.90;;;;;;5073295;28;20025;-75
2022/07/07 08:42:09;;;;;;;7.40;1.45;;;18.40;99.90;;;;;;5072706;28;20469;-76
2022/07/07 08:44:34;;;;;;;5.65;1.25;;;18.30;99.90;;;;;;5072984;28;20039;-75
2022/07/07 08:47:01;;;;;;;6.30;1.45;;;18.40;99.90;;;;;;5065201;28;20021;-76
2022/07/07 08:49:27;;;;;;;8.23;1.60;;;18.00;99.90;;;;;;5071006;28;20040;-75
2022/07/07 08:51:55;;;;;;;5.85;1.42;;;17.90;99.90;;;;;;5072897;28;20025;-75
2022/07/07 08:54:22;;;;;;;2.63;0.85;;;17.50;99.90;;;;;;5071400;28;20644;-76
2022/07/07 08:56:48;;;;;;;3.60;0.82;;;17.30;99.90;;;;;;5072967;28;20100;-75
2022/07/07 08:59:14;;;;;;;5.25;0.90;;;17.30;99.90;;;;;;5072538;28;20056;-75
2022/07/07 09:01:40;;;;;;;7.03;1.13;;;17.30;99.90;;;;;;5072753;28;20044;-75
2022/07/07 09:04:06;;;;;;;2.97;1.30;;;17.50;99.90;;;;;;5072457;28;20054;-76
2022/07/07 09:06:32;;;;;;;9.48;2.00;;;17.50;99.90;;;;;;5072611;28;20024;-76
2022/07/07 09:09:01;;;;;;;10.23;1.50;;;17.50;99.90;;;;;;5062621;28;20099;-75
2022/07/07 09:11:35;;;;;;;7.13;1.73;;;17.80;99.90;;;;;;5069033;28;20028;-76
2022/07/07 09:14:11;;;;;;;9.40;1.90;;;18.20;99.90;;;;;;5072361;28;20020;-75
2022/07/07 09:16:37;;;;;;;11.02;1.70;;;18.70;99.90;;;;;;5072410;28;20024;-75
2022/07/07 09:19:06;;;;;;;9.48;1.50;;;18.50;99.90;;;;;;5071113;28;20037;-75
2022/07/07 09:21:33;;;;;;;11.57;2.25;;;18.50;99.90;;;;;;5071264;28;20426;-75
2022/07/07 09:24:01;;;;;;;8.80;1.58;;;18.50;99.90;;;;;;5071044;28;20048;-75
2022/07/07 09:26:35;;;;;;;6.68;1.45;;;18.30;99.90;;;;;;5074587;28;20029;-75
2022/07/07 09:29:00;;;;;;;8.30;1.30;;;18.40;99.90;;;;;;5075156;28;20075;-75
2022/07/07 09:31:49;;;;;;;10.25;1.92;;;18.40;99.90;;;;;;5076343;28;20449;-76
2022/07/07 09:34:15;;;;;;;6.60;1.40;;;18.40;99.90;;;;;;5076495;28;20098;-76
2022/07/07 09:39:24;;;;;;;5.25;1.15;;;18.60;99.90;;;;;;5074646;28;20102;-74
2022/07/07 09:41:52;;;;;;;9.65;2.03;;;18.60;99.90;;;;;;5076415;28;20036;-75
2022/07/07 09:44:19;;;;;;;9.05;1.77;;;18.80;99.90;;;;;;5074376;28;20073;-74
2022/07/07 09:46:45;;;;;;;9.27;1.75;;;18.70;99.90;;;;;;5070918;28;20029;-74
2022/07/07 09:49:12;;;;;;;11.13;1.77;;;18.90;99.90;;;;;;5072170;28;20051;-74
2022/07/07 09:51:38;;;;;;;12.10;1.48;;;18.80;99.90;;;;;;5075091;28;20036;-74
2022/07/07 09:54:10;;;;;;;6.32;1.90;;;18.80;99.90;;;;;;5075805;28;20029;-74
2022/07/07 09:56:37;;;;;;;10.05;2.42;;;18.20;99.90;;;;;;5076022;28;20028;-74
2022/07/07 09:59:08;;;;;;;10.23;2.00;;;18.00;99.90;;;;;;5075639;28;20033;-74
2022/07/07 10:01:40;;;;;;;12.98;2.42;;;17.60;99.90;;;;;;5074817;28;20495;-74
2022/07/07 10:04:11;;;;;;;10.82;2.40;;;17.50;99.90;;;;;;5075621;28;20039;-74
2022/07/07 10:06:42;;;;;;;9.48;1.80;;;17.50;99.90;;;;;;5075832;28;20028;-74
2022/07/07 10:09:26;;;;;;;7.28;2.13;;;17.60;99.90;;;;;;5063177;28;20045;-76
2022/07/07 10:11:54;;;;;;;5.43;1.17;;;17.80;99.90;;;;;;5049883;28;20068;-74
2022/07/07 10:14:27;;;;;;;4.10;0.90;;;17.90;99.90;;;;;;5075300;28;20035;-77
2022/07/07 10:16:54;;;;;;;4.95;1.00;;;18.20;99.90;;;;;;5075687;28;20036;-74
2022/07/07 10:19:22;;;;;;;3.38;1.05;;;18.80;99.90;;;;;;5075616;28;20028;-74
2022/07/07 10:21:50;;;;;;;3.10;1.02;;;19.20;99.90;;;;;;5074230;28;20448;-74
2022/07/07 10:24:17;;;;;;;9.68;1.45;;;19.00;99.90;;;;;;5074028;28;20101;-74
2022/07/07 10:26:47;;;;;;;9.80;1.33;;;18.40;99.90;;;;;;5074153;28;20025;-74
2022/07/07 10:29:13;;;;;;;12.57;1.52;;;18.40;99.90;;;;;;5073612;28;20047;-75
2022/07/07 10:31:40;;;;;;;9.95;1.50;;;18.30;99.90;;;;;;5075364;28;20020;-74
2022/07/07 10:34:08;;;;;;;2.83;0.90;;;18.20;99.90;;;;;;5075365;28;20043;-74
2022/07/07 10:36:46;;;;;;;4.90;1.05;;;18.10;99.90;;;;;;5062681;28;20025;-76
2022/07/07 10:39:16;;;;;;;5.30;0.95;;;18.20;99.90;;;;;;5073136;28;20427;-76
2022/07/07 10:42:06;;;;;;;6.35;1.05;;;18.20;99.90;;;;;;5075124;28;20033;-74
2022/07/07 10:44:37;;;;;;;6.05;1.25;;;18.70;99.90;;;;;;5075029;28;20457;-77
2022/07/07 10:47:10;;;;;;;3.60;1.00;;;19.20;99.90;;;;;;5065956;28;20029;-77
2022/07/07 10:49:38;;;;;;;3.75;0.90;;;19.40;99.90;;;;;;5074590;28;20032;-76
2022/07/07 10:52:18;;;;;;;3.75;1.48;;;18.80;99.90;;;;;;5057006;28;20035;-76
2022/07/07 10:54:55;;;;;;;9.45;1.92;;;19.10;99.90;;;;;;5074886;28;20024;-76
2022/07/07 10:57:29;;;;;;;4.57;1.40;;;18.90;99.90;;;;;;5074672;28;20461;-76
2022/07/07 11:00:00;;;;;;;15.30;2.20;;;18.80;99.90;;;;;;5048057;28;20037;-76
2022/07/07 11:02:32;;;;;;;10.70;1.83;;;19.10;99.90;;;;;;5074830;28;20025;-76
2022/07/07 11:04:59;;;;;;;10.73;1.58;;;19.30;99.90;;;;;;5056874;28;20033;-76
2022/07/07 11:07:26;;;;;;;7.20;1.33;;;19.00;99.90;;;;;;5074666;28;20087;-76
2022/07/07 11:09:58;;;;;;;10.63;1.40;;;18.80;99.90;;;;;;5062321;28;20067;-76
2022/07/07 11:12:40;;;;;;;5.80;1.17;;;18.80;99.90;;;;;;5074294;28;20089;-76
2022/07/07 11:15:34;;;;;;;6.15;1.52;;;19.10;99.90;;;;;;5074324;28;20090;-77
2022/07/07 11:18:00;;;;;;;5.57;1.27;;;19.60;99.90;;;;;;5073060;28;20052;-76
2022/07/07 11:20:29;;;;;;;7.38;1.13;;;19.50;99.90;;;;;;5074587;28;20028;-74
2022/07/07 11:23:16;;;;;;;7.05;1.67;;;19.60;99.90;;;;;;5074499;28;20032;-74
2022/07/07 11:25:41;;;;;;;8.82;1.80;;;20.10;99.90;;;;;;5074076;28;20029;-74
2022/07/07 11:28:09;;;;;;;8.77;1.83;;;19.60;99.90;;;;;;5074162;28;20032;-74
2022/07/07 11:30:36;;;;;;;7.63;1.98;;;19.30;99.90;;;;;;5072784;28;20035;-76
2022/07/07 11:33:03;;;;;;;12.05;2.28;;;19.10;99.90;;;;;;5074178;28;20035;-74
2022/07/07 11:35:37;;;;;;;11.43;2.05;;;19.10;99.90;;;;;;5072739;28;20043;-74
2022/07/07 11:38:05;;;;;;;8.02;2.85;;;18.90;99.90;;;;;;5044748;28;20028;-74
2022/07/07 11:40:31;;;;;;;13.32;1.90;;;19.10;99.90;;;;;;5073987;28;20497;-74
2022/07/07 11:43:00;;;;;;;4.15;1.48;;;19.40;99.90;;;;;;5074072;28;20114;-74
2022/07/07 11:45:30;;;;;;;8.45;1.73;;;19.80;99.90;;;;;;5072759;28;20024;-76
2022/07/07 11:48:00;;;;;;;6.03;1.50;;;19.90;99.90;;;;;;5064087;28;20036;-76
2022/07/07 11:50:28;;;;;;;7.35;1.85;;;19.40;99.90;;;;;;5073343;28;20037;-76
2022/07/07 11:52:56;;;;;;;8.55;2.08;;;19.20;99.90;;;;;;5073650;28;20028;-76
2022/07/07 11:55:23;;;;;;;6.75;1.63;;;19.40;99.90;;;;;;5072355;28;20051;-76
2022/07/07 11:57:51;;;;;;;10.82;1.42;;;19.70;99.90;;;;;;5073451;28;20020;-76
2022/07/07 12:00:25;;;;;;;6.68;1.45;;;19.90;99.90;;;;;;5073753;28;20024;-76
2022/07/07 12:02:51;;;;;;;8.73;1.70;;;19.80;99.90;;;;;;5073410;28;20052;-76
2022/07/07 12:05:19;;;;;;;7.93;1.55;;;19.60;99.90;;;;;;5073694;28;20028;-76
2022/07/07 12:08:05;;;;;;;8.65;1.50;;;19.40;99.90;;;;;;5071786;28;20035;-76
2022/07/07 12:10:33;;;;;;;11.88;1.70;;;18.90;99.90;;;;;;5052807;28;20419;-77
2022/07/07 12:13:05;;;;;;;9.05;2.45;;;18.70;99.90;;;;;;5071747;28;20028;-76
2022/07/07 12:15:34;;;;;;;;;;;18.70;99.90;;;;;;5073900;28;20025;-76
2022/07/07 12:18:01;;;;;;;16.83;2.17;;;18.80;99.90;;;;;;5071934;28;19904;-76
2022/07/07 12:20:28;;;;;;;10.68;1.90;;;19.20;99.90;;;;;;5073224;28;20036;-76
2022/07/07 12:22:56;;;;;;;7.28;1.90;;;19.50;99.90;;;;;;5072994;28;20017;-76
2022/07/07 12:25:24;;;;;;;8.50;1.75;;;19.40;99.90;;;;;;5073004;28;20024;-76
2022/07/07 12:27:59;;;;;;;4.50;1.10;;;19.40;99.90;;;;;;5073215;28;20092;-76
2022/07/07 12:30:28;;;;;;;5.28;1.50;;;19.50;99.90;;;;;;5071718;28;20093;-76
2022/07/07 12:32:54;;;;;;;5.38;1.10;;;19.50;99.90;;;;;;5073068;28;20103;-77
2022/07/07 12:35:27;;;;;;;5.82;1.10;;;19.50;99.90;;;;;;5072504;28;20535;-77
2022/07/07 12:37:53;;;;;;;3.55;0.93;;;19.10;99.90;;;;;;5042276;28;20464;-74
2022/07/07 12:40:18;;;;;;;9.82;1.35;;;18.70;99.90;;;;;;5072561;28;20027;-73
2022/07/07 12:42:45;;;;;;;4.60;1.35;;;18.80;99.90;;;;;;5072697;28;20392;-73
2022/07/07 12:45:15;;;;;;;10.50;1.77;;;19.10;99.90;;;;;;5071663;28;20025;-73
2022/07/07 12:47:53;;;;;;;9.85;2.03;;;19.20;99.90;;;;;;5062088;28;20077;-73